sensor_id;sensor_type;location;lat;lon;timestamp;P1;durP1;ratioP1;P2;durP2;ratioP2
20336;SDS011;10326;53.660;10.200;2023-03-01T00:01:07;9.87;;;5.60;;
20336;SDS011;10326;53.660;10.200;2023-03-01T00:03:36;7.00;;;5.50;;
20336;SDS011;10326;53.660;10.200;2023-03-01T00:06:04;5.97;;;5.30;;
20336;SDS011;10326;53.660;10.200;2023-03-01T00:08:32;6.73;;;6.03;;
20336;SDS011;10326;53.660;10.200;2023-03-01T00:11:02;8.63;;;5.87;;
20336;SDS011;10326;53.660;10.200;2023-03-01T00:13:31;7.23;;;6.30;;
20336;SDS011;10326;53.660;10.200;2023-03-01T00:15:58;7.40;;;6.53;;
20336;SDS011;10326;53.660;10.200;2023-03-01T00:18:29;7.20;;;6.37;;
20336;SDS011;10326;53.660;10.200;2023-03-01T00:20:56;7.30;;;5.97;;
20336;SDS011;10326;53.660;10.200;2023-03-01T00:23:23;7.07;;;6.37;;
20336;SDS011;10326;53.660;10.200;2023-03-01T00:25:51;7.40;;;6.70;;
20336;SDS011;10326;53.660;10.200;2023-03-01T00:28:21;7.23;;;6.47;;
20336;SDS011;10326;53.660;10.200;2023-03-01T00:30:48;8.30;;;7.20;;
20336;SDS011;10326;53.660;10.200;2023-03-01T00:33:15;8.20;;;6.37;;
20336;SDS011;10326;53.660;10.200;2023-03-01T00:35:43;7.60;;;6.13;;
20336;SDS011;10326;53.660;10.200;2023-03-01T00:38:11;6.20;;;5.60;;
20336;SDS011;10326;53.660;10.200;2023-03-01T00:40:38;6.40;;;5.80;;
20336;SDS011;10326;53.660;10.200;2023-03-01T00:43:05;8.07;;;6.37;;
20336;SDS011;10326;53.660;10.200;2023-03-01T00:45:34;7.63;;;5.60;;
20336;SDS011;10326;53.660;10.200;2023-03-01T00:48:01;8.80;;;6.60;;
20336;SDS011;10326;53.660;10.200;2023-03-01T00:50:28;6.37;;;5.77;;
20336;SDS011;10326;53.660;10.200;2023-03-01T00:52:56;6.83;;;5.63;;
20336;SDS011;10326;53.660;10.200;2023-03-01T00:55:23;7.37;;;6.13;;
20336;SDS011;10326;53.660;10.200;2023-03-01T00:57:51;6.77;;;6.10;;
20336;SDS011;10326;53.660;10.200;2023-03-01T01:00:19;6.50;;;5.80;;
20336;SDS011;10326;53.660;10.200;2023-03-01T01:02:48;6.30;;;5.70;;
20336;SDS011;10326;53.660;10.200;2023-03-01T01:05:16;7.17;;;6.00;;
20336;SDS011;10326;53.660;10.200;2023-03-01T01:07:46;7.70;;;6.37;;
20336;SDS011;10326;53.660;10.200;2023-03-01T01:10:13;7.20;;;6.50;;
20336;SDS011;10326;53.660;10.200;2023-03-01T01:12:42;7.90;;;7.10;;
20336;SDS011;10326;53.660;10.200;2023-03-01T01:15:11;8.17;;;7.03;;
20336;SDS011;10326;53.660;10.200;2023-03-01T01:17:39;7.17;;;6.47;;
20336;SDS011;10326;53.660;10.200;2023-03-01T01:20:09;6.10;;;5.50;;
20336;SDS011;10326;53.660;10.200;2023-03-01T01:22:37;6.60;;;6.00;;
20336;SDS011;10326;53.660;10.200;2023-03-01T01:25:05;8.03;;;6.57;;
20336;SDS011;10326;53.660;10.200;2023-03-01T01:27:33;6.80;;;6.10;;
20336;SDS011;10326;53.660;10.200;2023-03-01T01:30:00;7.93;;;7.13;;
20336;SDS011;10326;53.660;10.200;2023-03-01T01:32:29;7.33;;;6.67;;
20336;SDS011;10326;53.660;10.200;2023-03-01T01:34:56;7.20;;;6.20;;
20336;SDS011;10326;53.660;10.200;2023-03-01T01:37:25;6.57;;;5.93;;
20336;SDS011;10326;53.660;10.200;2023-03-01T01:39:56;7.17;;;6.23;;
20336;SDS011;10326;53.660;10.200;2023-03-01T01:42:24;7.07;;;6.33;;
20336;SDS011;10326;53.660;10.200;2023-03-01T01:47:57;8.40;;;6.80;;
20336;SDS011;10326;53.660;10.200;2023-03-01T01:50:29;7.47;;;6.37;;
20336;SDS011;10326;53.660;10.200;2023-03-01T01:53:04;7.97;;;6.80;;
20336;SDS011;10326;53.660;10.200;2023-03-01T01:55:36;7.20;;;6.43;;
20336;SDS011;10326;53.660;10.200;2023-03-01T01:58:07;7.10;;;6.10;;
20336;SDS011;10326;53.660;10.200;2023-03-01T02:00:37;11.03;;;7.53;;
20336;SDS011;10326;53.660;10.200;2023-03-01T02:03:06;7.77;;;6.20;;
20336;SDS011;10326;53.660;10.200;2023-03-01T02:05:38;7.43;;;6.73;;
20336;SDS011;10326;53.660;10.200;2023-03-01T02:08:12;7.73;;;6.53;;
20336;SDS011;10326;53.660;10.200;2023-03-01T02:10:42;7.83;;;7.13;;
20336;SDS011;10326;53.660;10.200;2023-03-01T02:13:10;9.07;;;7.30;;
20336;SDS011;10326;53.660;10.200;2023-03-01T02:15:39;8.17;;;7.10;;
20336;SDS011;10326;53.660;10.200;2023-03-01T02:18:09;7.53;;;6.60;;
20336;SDS011;10326;53.660;10.200;2023-03-01T02:20:44;7.37;;;6.60;;
20336;SDS011;10326;53.660;10.200;2023-03-01T02:23:25;7.47;;;6.70;;
20336;SDS011;10326;53.660;10.200;2023-03-01T02:25:55;8.03;;;6.53;;
20336;SDS011;10326;53.660;10.200;2023-03-01T02:28:32;7.47;;;6.60;;
20336;SDS011;10326;53.660;10.200;2023-03-01T02:31:02;8.90;;;7.47;;
20336;SDS011;10326;53.660;10.200;2023-03-01T02:33:49;7.60;;;6.80;;
20336;SDS011;10326;53.660;10.200;2023-03-01T02:36:18;7.47;;;6.63;;
20336;SDS011;10326;53.660;10.200;2023-03-01T02:38:48;8.23;;;7.30;;
20336;SDS011;10326;53.660;10.200;2023-03-01T02:41:19;8.13;;;7.30;;
20336;SDS011;10326;53.660;10.200;2023-03-01T02:43:48;8.00;;;7.00;;
20336;SDS011;10326;53.660;10.200;2023-03-01T02:46:16;7.73;;;6.93;;
20336;SDS011;10326;53.660;10.200;2023-03-01T02:48:47;8.40;;;7.53;;
20336;SDS011;10326;53.660;10.200;2023-03-01T02:51:25;8.33;;;7.47;;
20336;SDS011;10326;53.660;10.200;2023-03-01T02:54:11;10.23;;;8.00;;
20336;SDS011;10326;53.660;10.200;2023-03-01T02:56:44;8.57;;;7.30;;
20336;SDS011;10326;53.660;10.200;2023-03-01T02:59:16;8.70;;;7.80;;
20336;SDS011;10326;53.660;10.200;2023-03-01T03:01:47;7.73;;;6.93;;
20336;SDS011;10326;53.660;10.200;2023-03-01T03:04:16;10.43;;;6.70;;
20336;SDS011;10326;53.660;10.200;2023-03-01T03:06:48;7.27;;;6.50;;
20336;SDS011;10326;53.660;10.200;2023-03-01T03:09:17;7.97;;;6.80;;
20336;SDS011;10326;53.660;10.200;2023-03-01T03:11:45;7.23;;;6.53;;
20336;SDS011;10326;53.660;10.200;2023-03-01T03:14:14;9.13;;;7.37;;
20336;SDS011;10326;53.660;10.200;2023-03-01T03:16:46;8.13;;;6.60;;
20336;SDS011;10326;53.660;10.200;2023-03-01T03:19:16;8.00;;;7.03;;
20336;SDS011;10326;53.660;10.200;2023-03-01T03:21:44;7.87;;;7.07;;
20336;SDS011;10326;53.660;10.200;2023-03-01T03:24:12;8.93;;;7.17;;
20336;SDS011;10326;53.660;10.200;2023-03-01T03:26:39;8.40;;;7.60;;
20336;SDS011;10326;53.660;10.200;2023-03-01T03:29:06;8.47;;;7.67;;
20336;SDS011;10326;53.660;10.200;2023-03-01T03:31:34;8.47;;;7.47;;
20336;SDS011;10326;53.660;10.200;2023-03-01T03:34:01;8.27;;;7.40;;
20336;SDS011;10326;53.660;10.200;2023-03-01T03:36:28;7.90;;;7.10;;
20336;SDS011;10326;53.660;10.200;2023-03-01T03:38:55;8.13;;;7.27;;
20336;SDS011;10326;53.660;10.200;2023-03-01T03:41:22;7.77;;;7.03;;
20336;SDS011;10326;53.660;10.200;2023-03-01T03:43:49;8.23;;;7.13;;
20336;SDS011;10326;53.660;10.200;2023-03-01T03:46:16;8.70;;;7.10;;
20336;SDS011;10326;53.660;10.200;2023-03-01T03:48:45;7.67;;;6.87;;
20336;SDS011;10326;53.660;10.200;2023-03-01T03:51:12;8.37;;;7.50;;
20336;SDS011;10326;53.660;10.200;2023-03-01T03:53:42;8.47;;;7.43;;
20336;SDS011;10326;53.660;10.200;2023-03-01T03:56:10;8.27;;;7.47;;
20336;SDS011;10326;53.660;10.200;2023-03-01T03:58:37;8.00;;;7.23;;
20336;SDS011;10326;53.660;10.200;2023-03-01T04:01:04;8.10;;;7.27;;
20336;SDS011;10326;53.660;10.200;2023-03-01T04:03:32;7.93;;;6.93;;
20336;SDS011;10326;53.660;10.200;2023-03-01T04:06:02;8.33;;;7.27;;
20336;SDS011;10326;53.660;10.200;2023-03-01T04:08:31;8.63;;;7.50;;
20336;SDS011;10326;53.660;10.200;2023-03-01T04:10:59;7.93;;;7.13;;
20336;SDS011;10326;53.660;10.200;2023-03-01T04:13:49;8.83;;;7.13;;
20336;SDS011;10326;53.660;10.200;2023-03-01T04:16:17;8.97;;;7.57;;
20336;SDS011;10326;53.660;10.200;2023-03-01T04:18:45;9.83;;;8.37;;
20336;SDS011;10326;53.660;10.200;2023-03-01T04:21:14;9.13;;;7.80;;
20336;SDS011;10326;53.660;10.200;2023-03-01T04:23:41;8.93;;;7.33;;
20336;SDS011;10326;53.660;10.200;2023-03-01T04:26:08;8.97;;;7.37;;
20336;SDS011;10326;53.660;10.200;2023-03-01T04:28:36;9.10;;;7.93;;
20336;SDS011;10326;53.660;10.200;2023-03-01T04:31:08;10.20;;;8.13;;
20336;SDS011;10326;53.660;10.200;2023-03-01T04:33:42;10.43;;;8.50;;
20336;SDS011;10326;53.660;10.200;2023-03-01T04:36:12;9.23;;;7.90;;
20336;SDS011;10326;53.660;10.200;2023-03-01T04:38:42;10.13;;;7.80;;
20336;SDS011;10326;53.660;10.200;2023-03-01T04:41:12;8.93;;;7.20;;
20336;SDS011;10326;53.660;10.200;2023-03-01T04:43:41;9.90;;;7.97;;
20336;SDS011;10326;53.660;10.200;2023-03-01T04:46:09;10.47;;;8.20;;
20336;SDS011;10326;53.660;10.200;2023-03-01T04:48:39;9.27;;;7.80;;
20336;SDS011;10326;53.660;10.200;2023-03-01T04:51:08;9.47;;;7.97;;
20336;SDS011;10326;53.660;10.200;2023-03-01T04:53:40;9.47;;;7.90;;
20336;SDS011;10326;53.660;10.200;2023-03-01T04:56:07;11.07;;;8.60;;
20336;SDS011;10326;53.660;10.200;2023-03-01T04:58:34;13.23;;;9.43;;
20336;SDS011;10326;53.660;10.200;2023-03-01T05:01:07;12.23;;;9.17;;
20336;SDS011;10326;53.660;10.200;2023-03-01T05:03:40;10.20;;;8.53;;
20336;SDS011;10326;53.660;10.200;2023-03-01T05:06:09;12.67;;;10.27;;
20336;SDS011;10326;53.660;10.200;2023-03-01T05:08:36;10.00;;;8.70;;
20336;SDS011;10326;53.660;10.200;2023-03-01T05:11:05;10.80;;;9.13;;
20336;SDS011;10326;53.660;10.200;2023-03-01T05:13:34;10.33;;;9.20;;
20336;SDS011;10326;53.660;10.200;2023-03-01T05:16:03;11.83;;;9.27;;
20336;SDS011;10326;53.660;10.200;2023-03-01T05:18:36;11.70;;;9.13;;
20336;SDS011;10326;53.660;10.200;2023-03-01T05:21:05;12.27;;;9.13;;
20336;SDS011;10326;53.660;10.200;2023-03-01T05:23:34;9.93;;;8.70;;
20336;SDS011;10326;53.660;10.200;2023-03-01T05:26:02;10.47;;;9.30;;
20336;SDS011;10326;53.660;10.200;2023-03-01T05:28:32;12.13;;;9.37;;
20336;SDS011;10326;53.660;10.200;2023-03-01T05:31:00;10.70;;;8.83;;
20336;SDS011;10326;53.660;10.200;2023-03-01T05:33:28;11.70;;;9.70;;
20336;SDS011;10326;53.660;10.200;2023-03-01T05:35:59;12.03;;;9.60;;
20336;SDS011;10326;53.660;10.200;2023-03-01T05:38:26;11.50;;;8.70;;
20336;SDS011;10326;53.660;10.200;2023-03-01T05:40:53;12.43;;;9.63;;
20336;SDS011;10326;53.660;10.200;2023-03-01T05:43:22;9.37;;;8.37;;
20336;SDS011;10326;53.660;10.200;2023-03-01T05:45:49;10.00;;;8.90;;
20336;SDS011;10326;53.660;10.200;2023-03-01T05:48:16;9.93;;;8.73;;
20336;SDS011;10326;53.660;10.200;2023-03-01T05:50:44;11.63;;;9.67;;
20336;SDS011;10326;53.660;10.200;2023-03-01T05:53:13;10.57;;;8.63;;
20336;SDS011;10326;53.660;10.200;2023-03-01T05:55:42;11.73;;;8.50;;
20336;SDS011;10326;53.660;10.200;2023-03-01T05:58:11;13.37;;;8.67;;
20336;SDS011;10326;53.660;10.200;2023-03-01T06:00:42;9.53;;;8.53;;
20336;SDS011;10326;53.660;10.200;2023-03-01T06:03:12;9.93;;;8.27;;
20336;SDS011;10326;53.660;10.200;2023-03-01T06:05:42;12.37;;;9.00;;
20336;SDS011;10326;53.660;10.200;2023-03-01T06:08:11;11.47;;;9.40;;
20336;SDS011;10326;53.660;10.200;2023-03-01T06:10:38;12.70;;;9.00;;
20336;SDS011;10326;53.660;10.200;2023-03-01T06:13:06;10.17;;;8.90;;
20336;SDS011;10326;53.660;10.200;2023-03-01T06:15:33;13.23;;;9.30;;
20336;SDS011;10326;53.660;10.200;2023-03-01T06:18:02;10.93;;;9.03;;
20336;SDS011;10326;53.660;10.200;2023-03-01T06:20:29;10.30;;;9.20;;
20336;SDS011;10326;53.660;10.200;2023-03-01T06:22:56;10.33;;;9.23;;
20336;SDS011;10326;53.660;10.200;2023-03-01T06:25:25;10.97;;;8.97;;
20336;SDS011;10326;53.660;10.200;2023-03-01T06:27:53;10.37;;;8.27;;
20336;SDS011;10326;53.660;10.200;2023-03-01T06:30:21;9.70;;;8.70;;
20336;SDS011;10326;53.660;10.200;2023-03-01T06:32:50;11.23;;;9.57;;
20336;SDS011;10326;53.660;10.200;2023-03-01T06:35:19;11.93;;;9.37;;
20336;SDS011;10326;53.660;10.200;2023-03-01T06:37:46;12.60;;;10.03;;
20336;SDS011;10326;53.660;10.200;2023-03-01T06:40:14;12.43;;;9.27;;
20336;SDS011;10326;53.660;10.200;2023-03-01T06:42:42;11.97;;;10.07;;
20336;SDS011;10326;53.660;10.200;2023-03-01T06:45:15;13.87;;;10.47;;
20336;SDS011;10326;53.660;10.200;2023-03-01T06:47:43;12.07;;;10.77;;
20336;SDS011;10326;53.660;10.200;2023-03-01T06:50:10;12.00;;;10.20;;
20336;SDS011;10326;53.660;10.200;2023-03-01T06:52:39;12.10;;;10.00;;
20336;SDS011;10326;53.660;10.200;2023-03-01T06:55:09;13.20;;;9.70;;
20336;SDS011;10326;53.660;10.200;2023-03-01T06:57:36;11.43;;;10.03;;
20336;SDS011;10326;53.660;10.200;2023-03-01T07:00:03;12.03;;;10.07;;
20336;SDS011;10326;53.660;10.200;2023-03-01T07:02:32;12.37;;;10.40;;
20336;SDS011;10326;53.660;10.200;2023-03-01T07:04:59;13.03;;;11.10;;
20336;SDS011;10326;53.660;10.200;2023-03-01T07:07:26;12.83;;;10.83;;
20336;SDS011;10326;53.660;10.200;2023-03-01T07:09:54;12.53;;;10.67;;
20336;SDS011;10326;53.660;10.200;2023-03-01T07:12:21;13.37;;;10.60;;
20336;SDS011;10326;53.660;10.200;2023-03-01T07:14:48;14.23;;;11.93;;
20336;SDS011;10326;53.660;10.200;2023-03-01T07:17:15;15.67;;;11.70;;
20336;SDS011;10326;53.660;10.200;2023-03-01T07:19:42;14.73;;;11.93;;
20336;SDS011;10326;53.660;10.200;2023-03-01T07:22:10;18.17;;;13.10;;
20336;SDS011;10326;53.660;10.200;2023-03-01T07:24:37;15.33;;;13.17;;
20336;SDS011;10326;53.660;10.200;2023-03-01T07:27:05;18.00;;;13.30;;
20336;SDS011;10326;53.660;10.200;2023-03-01T07:29:32;18.30;;;13.00;;
20336;SDS011;10326;53.660;10.200;2023-03-01T07:32:01;16.57;;;12.97;;
20336;SDS011;10326;53.660;10.200;2023-03-01T07:34:28;15.07;;;13.20;;
20336;SDS011;10326;53.660;10.200;2023-03-01T07:36:56;15.57;;;13.10;;
20336;SDS011;10326;53.660;10.200;2023-03-01T07:39:23;14.87;;;13.23;;
20336;SDS011;10326;53.660;10.200;2023-03-01T07:41:50;14.73;;;13.23;;
20336;SDS011;10326;53.660;10.200;2023-03-01T07:44:22;15.73;;;13.13;;
20336;SDS011;10326;53.660;10.200;2023-03-01T07:46:49;15.23;;;13.63;;
20336;SDS011;10326;53.660;10.200;2023-03-01T07:49:17;15.57;;;13.87;;
20336;SDS011;10326;53.660;10.200;2023-03-01T07:51:45;15.90;;;13.50;;
20336;SDS011;10326;53.660;10.200;2023-03-01T07:54:12;15.70;;;13.10;;
20336;SDS011;10326;53.660;10.200;2023-03-01T07:56:39;15.13;;;13.53;;
20336;SDS011;10326;53.660;10.200;2023-03-01T07:59:06;15.50;;;13.50;;
20336;SDS011;10326;53.660;10.200;2023-03-01T08:01:35;16.83;;;13.93;;
20336;SDS011;10326;53.660;10.200;2023-03-01T08:04:02;16.43;;;14.03;;
20336;SDS011;10326;53.660;10.200;2023-03-01T08:06:33;16.20;;;13.80;;
20336;SDS011;10326;53.660;10.200;2023-03-01T08:09:01;17.63;;;15.23;;
20336;SDS011;10326;53.660;10.200;2023-03-01T08:11:28;16.70;;;15.00;;
20336;SDS011;10326;53.660;10.200;2023-03-01T08:13:55;19.10;;;16.60;;
20336;SDS011;10326;53.660;10.200;2023-03-01T08:16:22;19.93;;;15.63;;
20336;SDS011;10326;53.660;10.200;2023-03-01T08:18:51;17.33;;;15.23;;
20336;SDS011;10326;53.660;10.200;2023-03-01T08:21:21;18.93;;;16.30;;
20336;SDS011;10326;53.660;10.200;2023-03-01T08:23:48;18.70;;;14.93;;
20336;SDS011;10326;53.660;10.200;2023-03-01T08:26:16;17.37;;;15.57;;
20336;SDS011;10326;53.660;10.200;2023-03-01T08:28:45;17.93;;;15.97;;
20336;SDS011;10326;53.660;10.200;2023-03-01T08:31:13;17.67;;;15.40;;
20336;SDS011;10326;53.660;10.200;2023-03-01T08:33:42;19.03;;;15.97;;
20336;SDS011;10326;53.660;10.200;2023-03-01T08:36:11;17.90;;;15.60;;
20336;SDS011;10326;53.660;10.200;2023-03-01T08:38:38;18.60;;;16.50;;
20336;SDS011;10326;53.660;10.200;2023-03-01T08:41:05;18.37;;;16.37;;
20336;SDS011;10326;53.660;10.200;2023-03-01T08:43:32;20.83;;;17.33;;
20336;SDS011;10326;53.660;10.200;2023-03-01T08:45:59;18.23;;;15.33;;
20336;SDS011;10326;53.660;10.200;2023-03-01T08:48:27;21.30;;;19.27;;
20336;SDS011;10326;53.660;10.200;2023-03-01T08:50:54;18.10;;;16.17;;
20336;SDS011;10326;53.660;10.200;2023-03-01T08:53:23;20.33;;;16.57;;
20336;SDS011;10326;53.660;10.200;2023-03-01T08:55:50;19.53;;;16.90;;
20336;SDS011;10326;53.660;10.200;2023-03-01T08:58:17;18.30;;;16.37;;
20336;SDS011;10326;53.660;10.200;2023-03-01T09:00:44;20.50;;;18.17;;
20336;SDS011;10326;53.660;10.200;2023-03-01T09:03:11;19.55;;;17.52;;
20336;SDS011;10326;53.660;10.200;2023-03-01T09:05:38;17.65;;;15.75;;
20336;SDS011;10326;53.660;10.200;2023-03-01T09:08:05;19.57;;;15.70;;
20336;SDS011;10326;53.660;10.200;2023-03-01T09:10:38;16.57;;;14.83;;
20336;SDS011;10326;53.660;10.200;2023-03-01T09:13:05;18.83;;;14.93;;
20336;SDS011;10326;53.660;10.200;2023-03-01T09:15:32;17.45;;;15.05;;
20336;SDS011;10326;53.660;10.200;2023-03-01T09:17:59;17.27;;;15.43;;
20336;SDS011;10326;53.660;10.200;2023-03-01T09:20:26;17.33;;;15.52;;
20336;SDS011;10326;53.660;10.200;2023-03-01T09:22:53;16.85;;;14.77;;
20336;SDS011;10326;53.660;10.200;2023-03-01T09:25:20;16.73;;;15.02;;
20336;SDS011;10326;53.660;10.200;2023-03-01T09:27:49;16.73;;;14.27;;
20336;SDS011;10326;53.660;10.200;2023-03-01T09:30:17;17.30;;;14.48;;
20336;SDS011;10326;53.660;10.200;2023-03-01T09:32:44;16.50;;;14.32;;
20336;SDS011;10326;53.660;10.200;2023-03-01T09:35:11;16.48;;;14.57;;
20336;SDS011;10326;53.660;10.200;2023-03-01T09:37:39;16.08;;;14.30;;
20336;SDS011;10326;53.660;10.200;2023-03-01T09:40:09;16.45;;;14.23;;
20336;SDS011;10326;53.660;10.200;2023-03-01T09:42:45;17.70;;;14.10;;
20336;SDS011;10326;53.660;10.200;2023-03-01T09:45:22;16.73;;;14.82;;
20336;SDS011;10326;53.660;10.200;2023-03-01T09:47:55;16.73;;;14.93;;
20336;SDS011;10326;53.660;10.200;2023-03-01T09:50:23;15.73;;;13.65;;
20336;SDS011;10326;53.660;10.200;2023-03-01T09:52:59;16.90;;;15.02;;
20336;SDS011;10326;53.660;10.200;2023-03-01T09:55:31;16.30;;;14.57;;
20336;SDS011;10326;53.660;10.200;2023-03-01T10:01:09;15.90;;;14.30;;
20336;SDS011;10326;53.660;10.200;2023-03-01T10:04:17;18.30;;;15.35;;
20336;SDS011;10326;53.660;10.200;2023-03-01T10:06:58;15.63;;;13.98;;
20336;SDS011;10326;53.660;10.200;2023-03-01T10:09:40;15.00;;;13.43;;
20336;SDS011;10326;53.660;10.200;2023-03-01T10:12:10;17.45;;;13.70;;
20336;SDS011;10326;53.660;10.200;2023-03-01T10:14:48;14.98;;;13.15;;
20336;SDS011;10326;53.660;10.200;2023-03-01T10:17:27;14.32;;;12.60;;
20336;SDS011;10326;53.660;10.200;2023-03-01T10:20:08;13.48;;;12.07;;
20336;SDS011;10326;53.660;10.200;2023-03-01T10:22:46;13.35;;;11.95;;
20336;SDS011;10326;53.660;10.200;2023-03-01T10:25:17;12.60;;;10.60;;
20336;SDS011;10326;53.660;10.200;2023-03-01T10:27:59;10.00;;;8.93;;
20336;SDS011;10326;53.660;10.200;2023-03-01T10:30:39;11.70;;;8.65;;
20336;SDS011;10326;53.660;10.200;2023-03-01T10:33:12;10.00;;;8.20;;
20336;SDS011;10326;53.660;10.200;2023-03-01T10:35:44;8.48;;;7.68;;
20336;SDS011;10326;53.660;10.200;2023-03-01T10:38:12;12.05;;;9.15;;
20336;SDS011;10326;53.660;10.200;2023-03-01T10:40:51;11.18;;;8.45;;
20336;SDS011;10326;53.660;10.200;2023-03-01T10:43:22;9.40;;;8.02;;
20336;SDS011;10326;53.660;10.200;2023-03-01T10:45:51;9.90;;;8.60;;
20336;SDS011;10326;53.660;10.200;2023-03-01T10:48:19;11.18;;;9.35;;
20336;SDS011;10326;53.660;10.200;2023-03-01T10:51:04;9.57;;;7.63;;
20336;SDS011;10326;53.660;10.200;2023-03-01T10:53:34;9.05;;;7.68;;
20336;SDS011;10326;53.660;10.200;2023-03-01T10:56:03;10.45;;;8.07;;
20336;SDS011;10326;53.660;10.200;2023-03-01T10:58:34;12.73;;;9.63;;
20336;SDS011;10326;53.660;10.200;2023-03-01T11:01:05;9.60;;;7.85;;
20336;SDS011;10326;53.660;10.200;2023-03-01T11:04:02;11.77;;;8.32;;
20336;SDS011;10326;53.660;10.200;2023-03-01T11:06:38;11.32;;;8.00;;
20336;SDS011;10326;53.660;10.200;2023-03-01T11:09:13;11.35;;;8.98;;
20336;SDS011;10326;53.660;10.200;2023-03-01T11:11:42;10.63;;;8.70;;
20336;SDS011;10326;53.660;10.200;2023-03-01T11:14:13;11.10;;;8.20;;
20336;SDS011;10326;53.660;10.200;2023-03-01T11:16:45;9.65;;;8.15;;
20336;SDS011;10326;53.660;10.200;2023-03-01T11:19:16;10.57;;;8.82;;
20336;SDS011;10326;53.660;10.200;2023-03-01T11:21:55;10.23;;;8.88;;
20336;SDS011;10326;53.660;10.200;2023-03-01T11:24:34;9.65;;;8.07;;
20336;SDS011;10326;53.660;10.200;2023-03-01T11:27:10;7.75;;;6.55;;
20336;SDS011;10326;53.660;10.200;2023-03-01T11:29:45;9.98;;;7.70;;
20336;SDS011;10326;53.660;10.200;2023-03-01T11:32:19;8.68;;;7.30;;
20336;SDS011;10326;53.660;10.200;2023-03-01T11:34:51;9.00;;;7.72;;
20336;SDS011;10326;53.660;10.200;2023-03-01T11:37:26;7.95;;;6.60;;
20336;SDS011;10326;53.660;10.200;2023-03-01T11:40:03;8.75;;;6.75;;
20336;SDS011;10326;53.660;10.200;2023-03-01T11:42:48;8.48;;;6.60;;
20336;SDS011;10326;53.660;10.200;2023-03-01T11:45:26;8.15;;;7.30;;
20336;SDS011;10326;53.660;10.200;2023-03-01T11:48:17;9.30;;;6.43;;
20336;SDS011;10326;53.660;10.200;2023-03-01T11:51:05;8.45;;;6.68;;
20336;SDS011;10326;53.660;10.200;2023-03-01T11:53:54;10.38;;;6.43;;
20336;SDS011;10326;53.660;10.200;2023-03-01T11:56:34;9.65;;;7.88;;
20336;SDS011;10326;53.660;10.200;2023-03-01T11:59:13;13.60;;;8.32;;
20336;SDS011;10326;53.660;10.200;2023-03-01T12:02:25;10.43;;;7.63;;
20336;SDS011;10326;53.660;10.200;2023-03-01T12:05:45;10.32;;;7.53;;
20336;SDS011;10326;53.660;10.200;2023-03-01T12:08:55;8.98;;;7.22;;
20336;SDS011;10326;53.660;10.200;2023-03-01T12:11:41;10.35;;;8.63;;
20336;SDS011;10326;53.660;10.200;2023-03-01T12:14:30;9.63;;;8.10;;
20336;SDS011;10326;53.660;10.200;2023-03-01T12:20:21;7.65;;;6.30;;
20336;SDS011;10326;53.660;10.200;2023-03-01T12:23:20;8.07;;;6.88;;
20336;SDS011;10326;53.660;10.200;2023-03-01T12:26:28;9.57;;;8.45;;
20336;SDS011;10326;53.660;10.200;2023-03-01T12:29:02;8.65;;;7.75;;
20336;SDS011;10326;53.660;10.200;2023-03-01T12:32:03;8.80;;;7.88;;
20336;SDS011;10326;53.660;10.200;2023-03-01T12:34:53;8.43;;;6.88;;
20336;SDS011;10326;53.660;10.200;2023-03-01T12:37:37;8.93;;;7.53;;
20336;SDS011;10326;53.660;10.200;2023-03-01T12:43:32;7.63;;;6.32;;
20336;SDS011;10326;53.660;10.200;2023-03-01T12:46:19;7.03;;;6.20;;
20336;SDS011;10326;53.660;10.200;2023-03-01T12:48:58;6.30;;;5.70;;
20336;SDS011;10326;53.660;10.200;2023-03-01T12:51:34;6.70;;;5.40;;
20336;SDS011;10326;53.660;10.200;2023-03-01T12:54:05;6.97;;;5.85;;
20336;SDS011;10326;53.660;10.200;2023-03-01T12:56:43;7.78;;;6.03;;
20336;SDS011;10326;53.660;10.200;2023-03-01T12:59:19;5.63;;;5.00;;
20336;SDS011;10326;53.660;10.200;2023-03-01T13:01:52;5.50;;;5.00;;
20336;SDS011;10326;53.660;10.200;2023-03-01T13:04:34;6.00;;;5.40;;
20336;SDS011;10326;53.660;10.200;2023-03-01T13:07:20;6.07;;;5.47;;
20336;SDS011;10326;53.660;10.200;2023-03-01T13:09:58;7.22;;;5.45;;
20336;SDS011;10326;53.660;10.200;2023-03-01T13:15:39;6.25;;;5.65;;
20336;SDS011;10326;53.660;10.200;2023-03-01T13:20:56;5.22;;;4.57;;
20336;SDS011;10326;53.660;10.200;2023-03-01T13:23:25;5.78;;;5.18;;
20336;SDS011;10326;53.660;10.200;2023-03-01T13:26:00;6.32;;;5.57;;
20336;SDS011;10326;53.660;10.200;2023-03-01T13:28:50;6.63;;;5.10;;
20336;SDS011;10326;53.660;10.200;2023-03-01T13:34:45;6.82;;;6.03;;
20336;SDS011;10326;53.660;10.200;2023-03-01T13:37:19;6.47;;;5.82;;
20336;SDS011;10326;53.660;10.200;2023-03-01T13:39:54;12.27;;;7.78;;
20336;SDS011;10326;53.660;10.200;2023-03-01T13:45:17;8.02;;;7.25;;
20336;SDS011;10326;53.660;10.200;2023-03-01T13:47:52;9.05;;;7.32;;
20336;SDS011;10326;53.660;10.200;2023-03-01T13:50:24;6.70;;;6.10;;
20336;SDS011;10326;53.660;10.200;2023-03-01T13:52:55;5.82;;;5.25;;
20336;SDS011;10326;53.660;10.200;2023-03-01T13:55:29;5.30;;;4.80;;
20336;SDS011;10326;53.660;10.200;2023-03-01T13:58:04;4.43;;;4.03;;
20336;SDS011;10326;53.660;10.200;2023-03-01T14:00:44;5.18;;;4.57;;
20336;SDS011;10326;53.660;10.200;2023-03-01T14:03:12;3.80;;;3.50;;
20336;SDS011;10326;53.660;10.200;2023-03-01T14:05:42;5.25;;;4.57;;
20336;SDS011;10326;53.660;10.200;2023-03-01T14:08:24;4.20;;;3.80;;
20336;SDS011;10326;53.660;10.200;2023-03-01T14:10:58;4.63;;;4.22;;
20336;SDS011;10326;53.660;10.200;2023-03-01T14:14:18;3.83;;;3.53;;
20336;SDS011;10326;53.660;10.200;2023-03-01T14:17:32;5.03;;;4.13;;
20336;SDS011;10326;53.660;10.200;2023-03-01T14:20:11;6.28;;;4.55;;
20336;SDS011;10326;53.660;10.200;2023-03-01T14:22:44;5.40;;;4.90;;
20336;SDS011;10326;53.660;10.200;2023-03-01T14:25:17;4.88;;;4.40;;
20336;SDS011;10326;53.660;10.200;2023-03-01T14:27:56;4.90;;;4.40;;
20336;SDS011;10326;53.660;10.200;2023-03-01T14:30:30;5.40;;;4.90;;
20336;SDS011;10326;53.660;10.200;2023-03-01T14:33:03;7.20;;;4.93;;
20336;SDS011;10326;53.660;10.200;2023-03-01T14:35:34;5.50;;;5.00;;
20336;SDS011;10326;53.660;10.200;2023-03-01T14:38:02;6.20;;;5.60;;
20336;SDS011;10326;53.660;10.200;2023-03-01T14:40:30;7.82;;;6.13;;
20336;SDS011;10326;53.660;10.200;2023-03-01T14:43:01;6.20;;;5.70;;
20336;SDS011;10326;53.660;10.200;2023-03-01T14:45:36;6.78;;;6.18;;
20336;SDS011;10326;53.660;10.200;2023-03-01T14:48:05;6.97;;;5.95;;
20336;SDS011;10326;53.660;10.200;2023-03-01T14:50:34;6.60;;;6.00;;
20336;SDS011;10326;53.660;10.200;2023-03-01T14:53:06;6.40;;;5.80;;
20336;SDS011;10326;53.660;10.200;2023-03-01T14:55:44;6.60;;;6.07;;
20336;SDS011;10326;53.660;10.200;2023-03-01T14:58:18;7.68;;;6.97;;
20336;SDS011;10326;53.660;10.200;2023-03-01T15:00:48;15.35;;;13.75;;
20336;SDS011;10326;53.660;10.200;2023-03-01T15:03:23;8.35;;;7.45;;
20336;SDS011;10326;53.660;10.200;2023-03-01T15:05:56;7.55;;;6.63;;
20336;SDS011;10326;53.660;10.200;2023-03-01T15:08:24;7.25;;;6.55;;
20336;SDS011;10326;53.660;10.200;2023-03-01T15:11:02;7.15;;;6.45;;
20336;SDS011;10326;53.660;10.200;2023-03-01T15:13:32;6.90;;;6.30;;
20336;SDS011;10326;53.660;10.200;2023-03-01T15:16:02;7.50;;;6.80;;
20336;SDS011;10326;53.660;10.200;2023-03-01T15:18:36;14.55;;;7.55;;